createdAt,value
2023-04-27T00:00:44.522Z,1.90
2023-04-27T00:03:11.316Z,2.83
2023-04-27T00:05:39.390Z,2.75
2023-04-27T00:10:33.433Z,1.85
2023-04-27T00:13:00.740Z,2.72
2023-04-27T00:15:28.197Z,2.97
2023-04-27T00:17:55.062Z,2.17
2023-04-27T00:20:21.796Z,2.63
2023-04-27T00:22:48.399Z,3.33
2023-04-27T00:25:15.070Z,2.65
2023-04-27T00:27:41.820Z,2.67
2023-04-27T00:30:09.812Z,2.80
2023-04-27T00:32:36.575Z,2.87
2023-04-27T00:35:03.421Z,2.90
2023-04-27T00:37:29.971Z,2.22
2023-04-27T00:39:56.883Z,2.70
2023-04-27T00:42:23.572Z,2.67
2023-04-27T00:44:51.158Z,2.75
2023-04-27T00:47:17.974Z,2.40
2023-04-27T00:49:45.046Z,2.20
2023-04-27T00:52:11.822Z,2.38
2023-04-27T00:54:38.848Z,2.40
2023-04-27T00:57:05.589Z,2.00
2023-04-27T00:59:32.291Z,2.40
2023-04-27T01:01:59.739Z,2.42
2023-04-27T01:04:26.855Z,2.83
2023-04-27T01:06:53.792Z,2.10
2023-04-27T01:09:20.920Z,2.47
2023-04-27T01:11:49.814Z,1.98
2023-04-27T01:14:16.479Z,2.85
2023-04-27T01:16:44.293Z,2.22
2023-04-27T01:19:11.234Z,2.70
2023-04-27T01:21:38.359Z,2.60
2023-04-27T01:24:08.827Z,2.63
2023-04-27T01:26:37.673Z,2.53
2023-04-27T01:29:04.370Z,2.60
2023-04-27T01:31:31.234Z,2.30
2023-04-27T01:33:57.902Z,2.70
2023-04-27T01:36:24.616Z,3.78
2023-04-27T01:38:51.397Z,2.33
2023-04-27T01:41:18.049Z,2.72
2023-04-27T01:43:44.702Z,2.33
2023-04-27T01:46:13.921Z,2.58
2023-04-27T01:48:41.339Z,2.60
2023-04-27T01:51:08.011Z,2.65
2023-04-27T01:53:35.189Z,1.90
2023-04-27T01:56:01.922Z,2.30
2023-04-27T01:58:28.830Z,2.80
2023-04-27T02:00:55.479Z,2.42
2023-04-27T02:03:22.397Z,1.42
2023-04-27T02:08:17.213Z,1.80
2023-04-27T02:10:44.915Z,2.88
2023-04-27T02:13:11.681Z,2.53
2023-04-27T02:15:38.290Z,2.40
2023-04-27T02:18:05.064Z,2.55
2023-04-27T02:20:32.974Z,1.60
2023-04-27T02:23:00.858Z,1.80
2023-04-27T02:25:27.577Z,1.67
2023-04-27T02:27:54.724Z,1.90
2023-04-27T02:30:21.903Z,2.27
2023-04-27T02:32:49.143Z,2.10
2023-04-27T02:35:15.816Z,2.42
2023-04-27T02:37:42.483Z,2.10
2023-04-27T02:40:09.588Z,2.53
2023-04-27T02:42:36.380Z,2.10
2023-04-27T02:45:03.195Z,3.17
2023-04-27T02:47:29.972Z,2.60
2023-04-27T02:49:56.776Z,1.80
2023-04-27T02:52:23.935Z,2.15
2023-04-27T02:54:50.554Z,1.50
2023-04-27T02:57:17.247Z,1.80
2023-04-27T02:59:44.032Z,2.30
2023-04-27T03:02:10.652Z,1.80
2023-04-27T03:04:37.392Z,1.88
2023-04-27T03:07:04.516Z,1.67
2023-04-27T03:09:31.090Z,1.88
2023-04-27T03:11:57.699Z,1.77
2023-04-27T03:14:24.292Z,2.65
2023-04-27T03:16:51.711Z,1.87
2023-04-27T03:19:18.316Z,2.72
2023-04-27T03:21:44.916Z,1.98
2023-04-27T03:24:11.522Z,1.73
2023-04-27T03:26:38.158Z,1.75
2023-04-27T03:29:04.836Z,2.10
2023-04-27T03:31:31.502Z,1.88
2023-04-27T03:33:58.498Z,2.08
2023-04-27T03:36:25.074Z,1.40
2023-04-27T03:38:51.617Z,1.80
2023-04-27T03:41:18.686Z,1.83
2023-04-27T03:43:45.267Z,1.88
2023-04-27T03:46:12.053Z,2.17
2023-04-27T03:48:38.685Z,1.52
2023-04-27T03:51:05.858Z,1.67
2023-04-27T03:53:32.928Z,1.98
2023-04-27T03:56:02.996Z,1.48
2023-04-27T03:58:29.840Z,1.65
2023-04-27T04:01:25.614Z,1.35
2023-04-27T04:03:52.400Z,1.55
2023-04-27T04:06:19.076Z,1.60
2023-04-27T04:08:45.951Z,1.80
2023-04-27T04:11:12.941Z,1.58
2023-04-27T04:13:39.643Z,1.48
2023-04-27T04:16:09.029Z,2.25
2023-04-27T04:18:36.683Z,1.80
2023-04-27T04:21:05.029Z,1.67
2023-04-27T04:23:31.948Z,1.70
2023-04-27T04:25:59.046Z,1.70
2023-04-27T04:28:30.326Z,2.28
2023-04-27T04:30:57.014Z,1.58
2023-04-27T04:33:23.975Z,1.80
2023-04-27T04:35:50.704Z,1.95
2023-04-27T04:38:18.428Z,2.05
2023-04-27T04:40:46.130Z,1.83
2023-04-27T04:43:12.900Z,2.17
2023-04-27T04:45:39.575Z,2.13
2023-04-27T04:48:06.396Z,2.10
2023-04-27T04:50:33.023Z,2.13
2023-04-27T04:52:59.788Z,2.28
2023-04-27T04:55:26.932Z,1.85
2023-04-27T04:57:54.054Z,1.80
2023-04-27T05:00:20.978Z,1.75
2023-04-27T05:02:47.727Z,1.77
2023-04-27T05:05:14.548Z,2.35
2023-04-27T05:07:41.540Z,2.00
2023-04-27T05:10:11.248Z,2.08
2023-04-27T05:12:44.344Z,2.13
2023-04-27T05:15:12.168Z,1.73
2023-04-27T05:17:39.081Z,2.47
2023-04-27T05:20:06.759Z,2.03
2023-04-27T05:22:33.318Z,2.22
2023-04-27T05:24:59.947Z,1.70
2023-04-27T05:27:26.597Z,2.38
2023-04-27T05:29:53.199Z,2.03
2023-04-27T05:32:19.750Z,1.95
2023-04-27T05:34:49.297Z,1.92
2023-04-27T05:37:16.251Z,2.20
2023-04-27T05:39:42.961Z,2.25
2023-04-27T05:42:09.606Z,2.28
2023-04-27T05:44:36.427Z,2.35
2023-04-27T05:47:03.038Z,2.47
2023-04-27T05:49:29.748Z,2.42
2023-04-27T05:51:56.371Z,2.28
2023-04-27T05:54:23.112Z,2.90
2023-04-27T05:56:49.852Z,2.30
2023-04-27T05:59:16.653Z,2.30
2023-04-27T06:01:43.750Z,3.50
2023-04-27T06:04:10.598Z,3.40
2023-04-27T06:06:37.241Z,2.53
2023-04-27T06:09:03.863Z,2.45
2023-04-27T06:11:30.590Z,2.92
2023-04-27T06:13:57.219Z,2.55
2023-04-27T06:16:24.037Z,2.13
2023-04-27T06:18:50.999Z,2.38
2023-04-27T06:21:18.061Z,2.70
2023-04-27T06:23:44.847Z,2.45
2023-04-27T06:26:11.621Z,2.30
2023-04-27T06:28:38.452Z,3.05
2023-04-27T06:31:05.649Z,2.58
2023-04-27T06:33:32.369Z,2.72
2023-04-27T06:36:00.434Z,2.85
2023-04-27T06:40:53.574Z,3.15
2023-04-27T06:43:20.209Z,2.63
2023-04-27T06:45:46.930Z,2.97
2023-04-27T06:48:13.620Z,3.08
2023-04-27T06:50:40.206Z,3.17
2023-04-27T06:53:06.851Z,3.47
2023-04-27T06:55:33.402Z,3.15
2023-04-27T06:58:00.152Z,3.30
2023-04-27T07:00:27.173Z,3.17
2023-04-27T07:02:53.966Z,2.60
2023-04-27T07:05:20.735Z,3.20
2023-04-27T07:07:47.507Z,3.38
2023-04-27T07:10:14.341Z,3.28
2023-04-27T07:12:42.908Z,3.25
2023-04-27T07:15:10.395Z,2.97
2023-04-27T07:17:37.026Z,2.78
2023-04-27T07:20:05.118Z,2.80
2023-04-27T07:22:32.585Z,4.03
2023-04-27T07:24:59.146Z,3.53
2023-04-27T07:27:25.728Z,3.78
2023-04-27T07:29:52.602Z,3.17
2023-04-27T07:32:19.299Z,2.35
2023-04-27T07:34:53.641Z,3.25
2023-04-27T07:37:21.861Z,3.90
2023-04-27T07:39:51.942Z,3.27
2023-04-27T07:42:19.579Z,3.38
2023-04-27T07:44:46.289Z,2.65
2023-04-27T07:47:12.870Z,3.72
2023-04-27T07:49:39.495Z,3.15
2023-04-27T07:52:06.109Z,2.72
2023-04-27T07:54:32.665Z,3.00
2023-04-27T07:56:59.310Z,3.25
2023-04-27T07:59:29.395Z,3.17
2023-04-27T08:02:07.175Z,2.75
2023-04-27T08:04:43.107Z,2.78
2023-04-27T08:07:10.652Z,3.03
2023-04-27T08:09:37.574Z,3.55
2023-04-27T08:12:04.646Z,3.15
2023-04-27T08:14:31.210Z,3.38
2023-04-27T08:16:57.986Z,3.70
2023-04-27T08:19:24.777Z,3.00
2023-04-27T08:21:51.350Z,3.80
2023-04-27T08:24:17.982Z,3.35
2023-04-27T08:26:44.647Z,3.90
2023-04-27T08:29:23.687Z,3.78
2023-04-27T08:31:56.413Z,4.22
2023-04-27T08:34:23.605Z,3.22
2023-04-27T08:36:50.367Z,3.95
2023-04-27T08:39:17.383Z,3.40
2023-04-27T08:41:44.065Z,3.42
2023-04-27T08:44:10.800Z,3.72
2023-04-27T08:46:38.082Z,3.65
2023-04-27T08:49:05.051Z,3.67
2023-04-27T08:51:32.820Z,3.55
2023-04-27T08:53:59.779Z,3.28
2023-04-27T08:56:28.668Z,4.15
2023-04-27T08:58:56.973Z,3.60
2023-04-27T09:01:24.975Z,3.28
2023-04-27T09:03:59.989Z,3.15
2023-04-27T09:06:34.869Z,4.13
2023-04-27T09:09:03.095Z,3.22
2023-04-27T09:11:33.532Z,3.60
2023-04-27T09:14:03.093Z,3.40
2023-04-27T09:16:31.230Z,3.15
2023-04-27T09:18:58.818Z,3.60
2023-04-27T09:21:30.224Z,4.25
2023-04-27T09:23:57.473Z,4.28
2023-04-27T09:26:27.982Z,3.10
2023-04-27T09:28:56.085Z,2.63
2023-04-27T09:31:30.727Z,3.13
2023-04-27T09:33:57.375Z,3.17
2023-04-27T09:36:25.284Z,3.53
2023-04-27T09:38:52.896Z,3.58
2023-04-27T09:41:20.118Z,2.92
2023-04-27T09:43:47.168Z,3.27
2023-04-27T09:46:14.624Z,3.00
2023-04-27T09:48:42.539Z,2.67
2023-04-27T09:51:09.254Z,2.72
2023-04-27T09:53:54.121Z,2.58
2023-04-27T09:56:51.028Z,3.25
2023-04-27T09:59:39.094Z,2.78
2023-04-27T10:02:20.810Z,2.33
2023-04-27T10:05:10.846Z,2.40
2023-04-27T10:07:39.730Z,3.78
2023-04-27T10:10:06.717Z,2.90
2023-04-27T10:12:36.879Z,2.72
2023-04-27T10:15:15.471Z,2.10
2023-04-27T10:17:52.355Z,2.10
2023-04-27T10:20:29.800Z,2.07
2023-04-27T10:22:56.565Z,2.58
2023-04-27T10:25:28.908Z,2.08
2023-04-27T10:27:57.830Z,2.38
2023-04-27T10:30:27.122Z,2.45
2023-04-27T10:32:56.254Z,3.00
2023-04-27T10:35:33.568Z,3.00
2023-04-27T10:38:10.336Z,1.80
2023-04-27T10:40:38.313Z,2.13
2023-04-27T10:43:16.233Z,2.42
2023-04-27T10:48:14.132Z,2.22
2023-04-27T10:53:08.554Z,1.77
2023-04-27T10:55:36.291Z,3.17
2023-04-27T10:58:02.869Z,3.28
2023-04-27T11:00:35.302Z,3.28
2023-04-27T11:03:20.010Z,2.45
2023-04-27T11:05:47.910Z,2.20
2023-04-27T11:08:16.951Z,2.67
2023-04-27T11:10:45.576Z,2.78
2023-04-27T11:13:15.099Z,2.42
2023-04-27T11:15:49.573Z,3.22
2023-04-27T11:18:17.539Z,3.75
2023-04-27T11:20:47.834Z,3.15
2023-04-27T11:23:28.075Z,2.35
2023-04-27T11:25:55.753Z,3.00
2023-04-27T11:28:23.560Z,2.40
2023-04-27T11:30:59.699Z,2.97
2023-04-27T11:33:27.407Z,2.80
2023-04-27T11:35:54.597Z,2.25
2023-04-27T11:38:21.402Z,2.30
2023-04-27T11:40:58.898Z,2.60
2023-04-27T11:43:26.273Z,2.15
2023-04-27T11:45:52.980Z,2.88
2023-04-27T11:48:20.160Z,2.28
2023-04-27T11:50:47.639Z,2.47
2023-04-27T11:53:15.552Z,2.58
2023-04-27T11:55:43.445Z,2.13
2023-04-27T11:58:16.660Z,2.83
2023-04-27T12:00:43.618Z,2.10
2023-04-27T12:03:10.384Z,1.90
2023-04-27T12:05:47.848Z,2.15
2023-04-27T12:08:14.513Z,2.63
2023-04-27T12:10:41.140Z,2.92
2023-04-27T12:13:07.891Z,2.67
2023-04-27T12:15:34.509Z,2.25
2023-04-27T12:18:01.309Z,2.40
2023-04-27T12:20:28.074Z,2.20
2023-04-27T12:22:54.985Z,2.20
2023-04-27T12:25:21.708Z,3.00
2023-04-27T12:27:48.289Z,3.17
2023-04-27T12:30:15.255Z,2.30
2023-04-27T12:32:42.035Z,2.60
2023-04-27T12:35:09.855Z,2.08
2023-04-27T12:37:37.054Z,2.00
2023-04-27T12:40:03.935Z,1.73
2023-04-27T12:42:30.586Z,2.53
2023-04-27T12:44:57.244Z,2.47
2023-04-27T12:49:53.509Z,2.58
2023-04-27T12:52:20.154Z,2.08
2023-04-27T12:54:46.700Z,2.22
2023-04-27T12:57:13.358Z,2.20
2023-04-27T12:59:40.110Z,1.90
2023-04-27T13:02:06.836Z,1.60
2023-04-27T13:04:33.620Z,1.63
2023-04-27T13:07:00.421Z,1.77
2023-04-27T13:09:27.829Z,1.75
2023-04-27T13:11:54.635Z,1.80
2023-04-27T13:14:21.369Z,1.50
2023-04-27T13:16:48.393Z,1.65
2023-04-27T13:19:15.207Z,2.22
2023-04-27T13:21:41.861Z,1.30
2023-04-27T13:24:08.500Z,2.00
2023-04-27T13:26:35.127Z,1.42
2023-04-27T13:29:01.840Z,1.90
2023-04-27T13:31:28.461Z,1.33
2023-04-27T13:33:55.081Z,2.22
2023-04-27T13:36:21.724Z,2.17
2023-04-27T13:38:49.876Z,1.92
2023-04-27T13:41:19.211Z,1.60
2023-04-27T13:43:45.945Z,1.73
2023-04-27T13:46:12.596Z,1.40
2023-04-27T13:48:39.176Z,2.05
2023-04-27T13:51:05.865Z,1.40
2023-04-27T13:53:32.468Z,1.63
2023-04-27T13:55:59.050Z,2.05
2023-04-27T13:58:27.771Z,1.90
2023-04-27T14:00:55.381Z,2.65
2023-04-27T14:03:22.233Z,1.40
2023-04-27T14:05:49.212Z,1.57
2023-04-27T14:08:15.876Z,1.55
2023-04-27T14:10:42.737Z,1.38
2023-04-27T14:13:09.372Z,1.40
2023-04-27T14:15:36.158Z,1.25
2023-04-27T14:18:07.155Z,1.27
2023-04-27T14:20:37.590Z,1.60
2023-04-27T14:23:06.659Z,1.98
2023-04-27T14:25:33.449Z,1.85
2023-04-27T14:28:05.039Z,1.58
2023-04-27T14:30:32.852Z,1.70
2023-04-27T14:32:59.754Z,1.58
2023-04-27T14:35:27.547Z,1.48
2023-04-27T14:37:54.254Z,1.48
2023-04-27T14:40:20.841Z,2.08
2023-04-27T14:42:47.493Z,1.30
2023-04-27T14:45:14.704Z,1.50
2023-04-27T14:47:41.388Z,2.00
2023-04-27T14:50:08.455Z,2.20
2023-04-27T14:52:35.150Z,1.83
2023-04-27T14:55:01.847Z,1.48
2023-04-27T14:57:28.433Z,1.27
2023-04-27T14:59:55.100Z,1.25
2023-04-27T15:02:21.865Z,1.35
2023-04-27T15:04:48.552Z,1.70
2023-04-27T15:07:15.313Z,1.58
2023-04-27T15:09:41.876Z,1.40
2023-04-27T15:12:10.276Z,1.38
2023-04-27T15:14:36.827Z,1.25
2023-04-27T15:17:03.442Z,1.40
2023-04-27T15:19:30.270Z,1.88
2023-04-27T15:21:56.854Z,2.03
2023-04-27T15:24:23.442Z,2.50
2023-04-27T15:26:50.125Z,2.08
2023-04-27T15:29:17.246Z,2.70
2023-04-27T15:31:43.963Z,2.10
2023-04-27T15:34:10.568Z,1.80
2023-04-27T15:36:37.255Z,2.17
2023-04-27T15:39:03.905Z,1.50
2023-04-27T15:41:30.465Z,2.03
2023-04-27T15:43:57.028Z,1.80
2023-04-27T15:46:23.634Z,1.95
2023-04-27T15:48:50.287Z,1.30
2023-04-27T15:51:16.880Z,1.55
2023-04-27T15:53:43.460Z,1.17
2023-04-27T15:56:10.142Z,1.40
2023-04-27T15:58:36.713Z,1.60
2023-04-27T16:01:03.380Z,1.70
2023-04-27T16:03:30.128Z,1.77
2023-04-27T16:05:56.769Z,1.10
2023-04-27T16:08:23.348Z,1.85
2023-04-27T16:10:50.017Z,1.77
2023-04-27T16:13:16.561Z,1.27
2023-04-27T16:15:43.188Z,1.23
2023-04-27T16:18:09.936Z,1.90
2023-04-27T16:20:36.786Z,1.40
2023-04-27T16:23:03.434Z,1.17
2023-04-27T16:25:30.052Z,1.33
2023-04-27T16:27:58.783Z,1.48
2023-04-27T16:30:25.492Z,1.13
2023-04-27T16:32:52.861Z,1.15
2023-04-27T16:35:19.533Z,1.60
2023-04-27T16:37:46.182Z,1.63
2023-04-27T16:40:12.979Z,1.75
2023-04-27T16:42:39.544Z,2.03
2023-04-27T16:45:09.072Z,1.75
2023-04-27T16:47:37.260Z,1.70
2023-04-27T16:50:04.263Z,1.30
2023-04-27T16:52:30.971Z,1.80
2023-04-27T16:54:57.641Z,1.35
2023-04-27T16:57:24.202Z,1.60
2023-04-27T16:59:50.823Z,1.50
2023-04-27T17:02:24.566Z,1.30
2023-04-27T17:04:53.180Z,1.75
2023-04-27T17:07:19.940Z,1.73
2023-04-27T17:09:46.604Z,1.30
2023-04-27T17:12:13.238Z,1.60
2023-04-27T17:14:39.945Z,1.80
2023-04-27T17:17:06.812Z,1.80
2023-04-27T17:19:33.481Z,1.85
2023-04-27T17:22:00.287Z,1.30
2023-04-27T17:24:27.185Z,1.50
2023-04-27T17:26:53.834Z,1.42
2023-04-27T17:29:20.491Z,1.20
2023-04-27T17:31:47.297Z,1.35
2023-04-27T17:34:13.971Z,1.35
2023-04-27T17:36:40.536Z,1.10
2023-04-27T17:39:07.104Z,1.00
2023-04-27T17:41:35.476Z,1.30
2023-04-27T17:44:03.454Z,1.73
2023-04-27T17:46:30.197Z,1.20
2023-04-27T17:48:57.218Z,1.67
2023-04-27T17:51:23.772Z,1.52
2023-04-27T17:53:50.324Z,1.05
2023-04-27T17:56:19.372Z,1.13
2023-04-27T17:58:49.180Z,1.77
2023-04-27T18:01:15.876Z,1.30
2023-04-27T18:03:42.596Z,1.08
2023-04-27T18:06:09.341Z,1.13
2023-04-27T18:08:35.906Z,1.40
2023-04-27T18:11:02.653Z,1.00
2023-04-27T18:13:29.271Z,1.67
2023-04-27T18:15:55.976Z,1.08
2023-04-27T18:18:25.266Z,0.93
2023-04-27T18:20:52.129Z,1.10
2023-04-27T18:23:18.741Z,1.00
2023-04-27T18:25:45.302Z,1.00
2023-04-27T18:28:12.283Z,0.52
2023-04-27T18:30:38.950Z,1.02
2023-04-27T18:33:05.748Z,1.00
2023-04-27T18:35:32.453Z,1.20
2023-04-27T18:37:59.117Z,1.05
2023-04-27T18:40:25.863Z,1.00
2023-04-27T18:42:53.181Z,0.85
2023-04-27T18:45:20.099Z,0.90
2023-04-27T18:47:46.997Z,1.20
2023-04-27T18:50:13.759Z,1.00
2023-04-27T18:52:40.331Z,0.80
2023-04-27T18:55:08.809Z,1.20
2023-04-27T18:57:35.400Z,1.00
2023-04-27T19:00:02.543Z,1.00
2023-04-27T19:02:29.211Z,1.05
2023-04-27T19:05:11.388Z,1.50
2023-04-27T19:07:40.120Z,1.35
2023-04-27T19:10:07.636Z,1.00
2023-04-27T19:12:34.280Z,1.20
2023-04-27T19:15:00.863Z,1.25
2023-04-27T19:17:27.824Z,1.10
2023-04-27T19:19:54.532Z,1.13
2023-04-27T19:22:21.206Z,1.25
2023-04-27T19:24:48.209Z,0.98
2023-04-27T19:27:14.901Z,1.00
2023-04-27T19:29:55.670Z,1.48
2023-04-27T19:32:23.789Z,1.40
2023-04-27T19:34:50.520Z,1.38
2023-04-27T19:37:17.544Z,1.30
2023-04-27T19:39:44.113Z,1.38
2023-04-27T19:42:10.860Z,1.25
2023-04-27T19:44:37.434Z,1.92
2023-04-27T19:47:04.027Z,1.58
2023-04-27T19:49:31.839Z,1.70
2023-04-27T19:51:59.409Z,1.55
2023-04-27T19:54:26.176Z,1.60
2023-04-27T19:56:52.928Z,2.47
2023-04-27T19:59:19.688Z,2.08
2023-04-27T20:01:46.651Z,2.85
2023-04-27T20:04:13.511Z,2.22
2023-04-27T20:06:40.703Z,2.67
2023-04-27T20:09:07.288Z,2.58
2023-04-27T20:11:33.850Z,1.90
2023-04-27T20:14:00.530Z,2.28
2023-04-27T20:16:27.104Z,2.05
2023-04-27T20:18:53.870Z,2.38
2023-04-27T20:21:20.510Z,2.72
2023-04-27T20:23:50.273Z,2.10
2023-04-27T20:26:16.918Z,2.30
2023-04-27T20:28:44.001Z,1.98
2023-04-27T20:31:10.745Z,2.45
2023-04-27T20:33:37.418Z,2.22
2023-04-27T20:36:14.047Z,2.13
2023-04-27T20:38:43.804Z,2.33
2023-04-27T20:41:10.540Z,2.45
2023-04-27T20:43:37.091Z,2.60
2023-04-27T20:46:04.047Z,1.98
2023-04-27T20:48:30.652Z,2.85
2023-04-27T20:50:57.301Z,2.60
2023-04-27T20:53:23.892Z,2.28
2023-04-27T20:55:50.618Z,2.55
2023-04-27T20:58:17.177Z,2.17
2023-04-27T21:00:43.897Z,2.20
2023-04-27T21:03:11.178Z,2.20
2023-04-27T21:05:38.003Z,2.30
2023-04-27T21:08:04.544Z,3.13
2023-04-27T21:10:31.270Z,2.85
2023-04-27T21:12:57.832Z,2.70
2023-04-27T21:15:24.587Z,2.83
2023-04-27T21:17:51.510Z,2.33
2023-04-27T21:20:18.256Z,2.60
2023-04-27T21:22:44.951Z,2.50
2023-04-27T21:25:11.589Z,3.72
2023-04-27T21:27:38.139Z,2.55
2023-04-27T21:30:05.586Z,2.55
2023-04-27T21:32:32.326Z,2.78
2023-04-27T21:34:58.954Z,3.00
2023-04-27T21:37:25.750Z,3.58
2023-04-27T21:39:52.369Z,2.92
2023-04-27T21:42:18.924Z,3.15
2023-04-27T21:44:45.607Z,2.90
2023-04-27T21:47:12.203Z,2.92
2023-04-27T21:49:38.940Z,3.42
2023-04-27T21:52:05.540Z,2.60
2023-04-27T21:54:32.278Z,3.15
2023-04-27T21:56:58.943Z,2.90
2023-04-27T21:59:25.574Z,2.50
2023-04-27T22:01:52.360Z,2.97
2023-04-27T22:04:19.622Z,3.00
2023-04-27T22:06:46.527Z,2.53
2023-04-27T22:09:13.386Z,2.88
2023-04-27T22:14:44.337Z,2.17
2023-04-27T22:17:11.036Z,3.42
2023-04-27T22:19:37.669Z,2.58
2023-04-27T22:22:04.387Z,3.03
2023-04-27T22:24:31.112Z,3.22
2023-04-27T22:26:57.794Z,3.78
2023-04-27T22:29:24.388Z,3.90
2023-04-27T22:31:51.450Z,3.55
2023-04-27T22:34:18.332Z,3.25
2023-04-27T22:36:45.381Z,3.20
2023-04-27T22:39:12.153Z,3.10
2023-04-27T22:41:38.933Z,3.47
2023-04-27T22:44:05.510Z,3.67
2023-04-27T22:46:32.149Z,3.10
2023-04-27T22:48:58.862Z,3.97
2023-04-27T22:51:25.445Z,3.75
2023-04-27T22:53:52.153Z,3.95
2023-04-27T22:56:19.200Z,3.60
2023-04-27T22:58:45.811Z,3.60
2023-04-27T23:01:12.884Z,3.55
2023-04-27T23:03:39.534Z,4.03
2023-04-27T23:06:06.419Z,3.25
2023-04-27T23:08:33.142Z,3.47
2023-04-27T23:10:59.803Z,3.80
2023-04-27T23:13:26.449Z,4.43
2023-04-27T23:15:53.872Z,3.92
2023-04-27T23:18:21.208Z,3.55
2023-04-27T23:20:52.730Z,3.57
2023-04-27T23:23:19.443Z,3.47
2023-04-27T23:25:46.223Z,4.30
2023-04-27T23:28:12.800Z,3.95
2023-04-27T23:30:39.556Z,3.33
2023-04-27T23:33:06.237Z,3.42
2023-04-27T23:35:32.932Z,3.95
2023-04-27T23:37:59.712Z,3.55
2023-04-27T23:40:26.278Z,3.08
2023-04-27T23:42:52.831Z,3.65
2023-04-27T23:45:19.434Z,3.00
2023-04-27T23:47:46.082Z,3.28
2023-04-27T23:50:12.783Z,3.25
2023-04-27T23:52:39.345Z,3.30
2023-04-27T23:55:06.596Z,3.60
2023-04-27T23:57:33.199Z,3.33
